Time;durP1;ratioP1;P1;durP2;ratioP2;P2;SDS_P1;SDS_P2;PMS_P1;PMS_P2;Temp;Humidity;BMP_temperature;BMP_pressure;BME280_temperature;BME280_humidity;BME280_pressure;Samples;Min_cycle;Max_cycle;Signal;HPM_P1;HPM_P2
2023/01/28 00:01:36;;;;;;;20.20;13.53;;;3.80;99.90;;;;;;5020281;28;20461;-66
2023/01/28 00:04:04;;;;;;;22.47;14.17;;;3.80;99.90;;;;;;5012401;28;20652;-66
2023/01/28 00:06:34;;;;;;;22.53;13.67;;;3.80;99.90;;;;;;5021329;28;20193;-65
2023/01/28 00:09:03;;;;;;;24.53;13.90;;;3.80;99.90;;;;;;5016253;28;20221;-66
2023/01/28 00:11:32;;;;;;;20.10;13.07;;;3.80;99.90;;;;;;5023001;28;20533;-66
2023/01/28 00:14:00;;;;;;;21.83;13.80;;;3.80;99.90;;;;;;5016480;28;20198;-66
2023/01/28 00:16:29;;;;;;;22.17;14.20;;;3.80;99.90;;;;;;5021289;28;20201;-66
2023/01/28 00:18:57;;;;;;;21.07;13.43;;;3.80;99.90;;;;;;5027574;28;20273;-66
2023/01/28 00:21:26;;;;;;;23.93;14.30;;;3.80;99.90;;;;;;5020059;28;20215;-66
2023/01/28 00:23:56;;;;;;;21.30;13.73;;;3.80;99.90;;;;;;5027763;28;20284;-66
2023/01/28 00:26:26;;;;;;;20.63;14.50;;;3.80;99.90;;;;;;5017239;28;20600;-66
2023/01/28 00:28:54;;;;;;;24.30;14.87;;;3.80;99.90;;;;;;5025869;28;20299;-66
2023/01/28 00:31:24;;;;;;;25.60;15.57;;;3.80;99.90;;;;;;5021650;28;20198;-66
2023/01/28 00:33:54;;;;;;;24.10;13.93;;;3.80;99.90;;;;;;5014533;28;20699;-67
2023/01/28 00:36:24;;;;;;;23.03;14.87;;;3.80;99.90;;;;;;5027812;28;20194;-65
2023/01/28 00:38:55;;;;;;;23.07;14.57;;;3.80;99.90;;;;;;5019543;28;20197;-65
2023/01/28 00:41:25;;;;;;;23.50;14.83;;;3.70;99.90;;;;;;5015817;28;20281;-65
2023/01/28 00:43:54;;;;;;;23.27;14.87;;;3.70;99.90;;;;;;5019492;28;20715;-65
2023/01/28 00:46:24;;;;;;;22.03;14.10;;;3.70;99.90;;;;;;5016953;28;20656;-65
2023/01/28 00:48:53;;;;;;;24.27;14.57;;;3.70;99.90;;;;;;5025202;28;20197;-65
2023/01/28 00:51:21;;;;;;;20.27;13.27;;;3.70;99.90;;;;;;5018799;28;20192;-65
2023/01/28 00:53:50;;;;;;;18.63;12.13;;;3.70;99.90;;;;;;5030821;28;20200;-65
2023/01/28 00:56:20;;;;;;;20.23;12.73;;;3.70;99.90;;;;;;5032149;28;20518;-65
2023/01/28 00:58:48;;;;;;;19.30;13.07;;;3.60;99.90;;;;;;5026723;28;20202;-65
2023/01/28 01:01:18;;;;;;;19.27;12.97;;;3.60;99.90;;;;;;5027965;28;20568;-65
2023/01/28 01:03:53;;;;;;;20.47;12.83;;;3.60;99.90;;;;;;5019610;28;20198;-65
2023/01/28 01:06:21;;;;;;;19.70;13.07;;;3.60;99.90;;;;;;5030909;28;20197;-65
2023/01/28 01:08:50;;;;;;;20.20;12.73;;;3.60;99.90;;;;;;5027827;28;20334;-65
2023/01/28 01:11:20;;;;;;;18.77;12.37;;;3.60;99.90;;;;;;5027747;28;20193;-65
2023/01/28 01:13:51;;;;;;;16.67;11.27;;;3.60;99.90;;;;;;5031935;28;20288;-65
2023/01/28 01:16:19;;;;;;;16.33;11.50;;;3.60;99.90;;;;;;5024185;28;20193;-65
2023/01/28 01:18:48;;;;;;;16.47;11.50;;;3.60;99.90;;;;;;5026614;28;20197;-65
2023/01/28 01:21:19;;;;;;;21.17;12.53;;;3.60;99.90;;;;;;5024157;28;20536;-65
2023/01/28 01:23:48;;;;;;;16.10;11.43;;;3.60;99.90;;;;;;5028382;28;20198;-65
2023/01/28 01:26:16;;;;;;;16.37;11.27;;;3.60;99.90;;;;;;5018382;28;20644;-65
2023/01/28 01:28:46;;;;;;;20.37;12.53;;;3.60;99.90;;;;;;5029119;28;20217;-65
2023/01/28 01:31:17;;;;;;;17.43;12.20;;;3.60;99.90;;;;;;5032224;28;20201;-65
2023/01/28 01:33:47;;;;;;;17.47;11.87;;;3.60;99.90;;;;;;5021875;28;20204;-65
2023/01/28 01:36:19;;;;;;;18.67;11.53;;;3.60;99.90;;;;;;5024122;28;20280;-65
2023/01/28 01:38:47;;;;;;;16.60;11.90;;;3.60;99.90;;;;;;5021302;28;20211;-65
2023/01/28 01:41:24;;;;;;;14.80;10.90;;;3.60;99.90;;;;;;5026790;28;20225;-65
2023/01/28 01:43:56;;;;;;;16.50;11.33;;;3.60;99.90;;;;;;5021712;28;20217;-65
2023/01/28 01:46:35;;;;;;;18.63;12.70;;;3.50;99.90;;;;;;5020952;28;20547;-65
2023/01/28 01:49:12;;;;;;;18.20;12.50;;;3.50;99.90;;;;;;5027193;28;20223;-65
2023/01/28 01:51:41;;;;;;;16.63;11.33;;;3.50;99.90;;;;;;5026836;28;20202;-65
2023/01/28 01:54:10;;;;;;;19.97;12.37;;;3.50;99.90;;;;;;5025162;28;20555;-65
2023/01/28 01:56:42;;;;;;;18.23;12.00;;;3.50;99.90;;;;;;5029085;28;20202;-65
2023/01/28 01:59:15;;;;;;;17.97;12.47;;;3.50;99.90;;;;;;5029617;28;20564;-65
2023/01/28 02:01:45;;;;;;;19.50;12.97;;;3.50;99.90;;;;;;5022042;28;20206;-65
2023/01/28 02:04:19;;;;;;;19.10;12.17;;;3.50;99.90;;;;;;5021183;28;20281;-65
2023/01/28 02:06:48;;;;;;;18.40;12.10;;;3.50;99.90;;;;;;5026289;28;20227;-65
2023/01/28 02:09:25;;;;;;;20.13;13.33;;;3.50;99.90;;;;;;5021857;28;21220;-65
2023/01/28 02:11:55;;;;;;;19.33;12.40;;;3.50;99.90;;;;;;5022945;28;20271;-65
2023/01/28 02:14:28;;;;;;;21.27;13.67;;;3.50;99.90;;;;;;5033236;28;20648;-65
2023/01/28 02:17:00;;;;;;;20.80;13.20;;;3.50;99.90;;;;;;5030162;28;20648;-65
2023/01/28 02:19:36;;;;;;;20.80;13.27;;;3.50;99.90;;;;;;5020807;28;20204;-65
2023/01/28 02:22:34;;;;;;;20.60;13.10;;;3.50;99.90;;;;;;5025593;28;20190;-65
2023/01/28 02:25:26;;;;;;;21.17;13.50;;;3.40;99.90;;;;;;5022816;28;20209;-65
2023/01/28 02:28:14;;;;;;;19.20;12.77;;;3.40;99.90;;;;;;5029459;28;20185;-65
2023/01/28 02:30:48;;;;;;;20.00;13.17;;;3.50;99.90;;;;;;5032851;28;20239;-65
2023/01/28 02:33:21;;;;;;;21.93;13.70;;;3.40;99.90;;;;;;5015676;28;20633;-65
2023/01/28 02:35:53;;;;;;;22.37;12.83;;;3.40;99.90;;;;;;5020943;28;20204;-65
2023/01/28 02:38:29;;;;;;;20.40;13.03;;;3.40;99.90;;;;;;5020370;28;20190;-65
2023/01/28 02:41:08;;;;;;;19.50;12.67;;;3.40;99.90;;;;;;5022226;28;20201;-65
2023/01/28 02:43:40;;;;;;;21.93;13.00;;;3.40;99.90;;;;;;5017138;28;20233;-65
2023/01/28 02:49:11;;;;;;;20.97;13.83;;;3.30;99.90;;;;;;5019076;28;20230;-65
2023/01/28 02:52:08;;;;;;;21.03;13.23;;;3.30;99.90;;;;;;5038638;28;20197;-65
2023/01/28 02:54:44;;;;;;;21.13;13.67;;;3.30;99.90;;;;;;5022888;28;20193;-65
2023/01/28 02:57:25;;;;;;;21.10;13.27;;;3.30;99.90;;;;;;5030422;28;20201;-65
2023/01/28 03:00:02;;;;;;;20.30;12.40;;;3.30;99.90;;;;;;5028969;28;20189;-65
2023/01/28 03:02:36;;;;;;;19.57;13.03;;;3.30;99.90;;;;;;5028914;28;20216;-65
2023/01/28 03:05:12;;;;;;;20.10;13.37;;;3.30;99.90;;;;;;5025059;28;20285;-65
2023/01/28 03:07:41;;;;;;;19.47;12.63;;;3.30;99.90;;;;;;5023326;28;20307;-65
2023/01/28 03:10:15;;;;;;;19.00;12.40;;;3.30;99.90;;;;;;5029557;28;20210;-65
2023/01/28 03:38:21;;;;;;;14.30;10.50;;;3.20;99.90;;;;;;5025594;28;20522;-65
2023/01/28 03:40:51;;;;;;;14.60;10.63;;;3.20;99.90;;;;;;5023263;28;20231;-65
2023/01/28 03:43:20;;;;;;;15.73;10.80;;;3.20;99.90;;;;;;5029076;28;20220;-65
2023/01/28 03:45:50;;;;;;;14.50;10.80;;;3.20;99.90;;;;;;5029891;28;20235;-65
2023/01/28 03:48:21;;;;;;;15.97;10.60;;;3.20;99.90;;;;;;5023417;28;20202;-65
2023/01/28 03:50:50;;;;;;;15.43;10.47;;;3.20;99.90;;;;;;5025061;28;20260;-65
2023/01/28 03:53:19;;;;;;;14.07;9.80;;;3.20;99.90;;;;;;5000800;28;20194;-65
2023/01/28 03:55:50;;;;;;;15.00;10.53;;;3.20;99.90;;;;;;5029609;28;20644;-65
2023/01/28 03:58:19;;;;;;;14.10;10.07;;;3.20;99.90;;;;;;5022135;28;20288;-65
2023/01/28 04:00:47;;;;;;;13.63;10.33;;;3.20;99.90;;;;;;5030089;28;20193;-65
2023/01/28 04:03:19;;;;;;;13.23;10.33;;;3.10;99.90;;;;;;5024543;28;20276;-65
2023/01/28 04:05:58;;;;;;;13.53;10.53;;;3.10;99.90;;;;;;5020196;28;20658;-65
2023/01/28 04:08:27;;;;;;;14.83;10.87;;;3.10;99.90;;;;;;5023914;28;20225;-65
2023/01/28 04:10:56;;;;;;;14.07;10.60;;;3.10;99.90;;;;;;5021191;28;20213;-65
2023/01/28 04:13:24;;;;;;;16.17;11.33;;;3.20;99.90;;;;;;5027676;28;20193;-65
2023/01/28 04:15:53;;;;;;;15.77;11.13;;;3.20;99.90;;;;;;5029414;28;20276;-65
2023/01/28 04:18:26;;;;;;;16.17;11.30;;;3.20;99.90;;;;;;5025717;28;20273;-65
2023/01/28 04:20:54;;;;;;;14.60;10.80;;;3.10;99.90;;;;;;5024413;28;20186;-65
2023/01/28 04:23:23;;;;;;;14.17;10.73;;;3.10;99.90;;;;;;5015447;28;20627;-65
2023/01/28 04:25:52;;;;;;;18.73;11.57;;;3.10;99.90;;;;;;5017919;28;20193;-65
2023/01/28 04:28:20;;;;;;;16.40;11.87;;;3.10;99.90;;;;;;5028765;28;20656;-65
2023/01/28 04:30:48;;;;;;;19.70;11.83;;;3.10;99.90;;;;;;5018000;28;20884;-65
2023/01/28 04:33:17;;;;;;;17.33;11.33;;;3.10;99.90;;;;;;5030941;28;20224;-65
2023/01/28 04:35:47;;;;;;;18.33;12.17;;;3.10;99.90;;;;;;5025802;28;20534;-65
2023/01/28 04:38:15;;;;;;;16.97;11.90;;;3.10;99.90;;;;;;5026306;28;20189;-65
2023/01/28 04:40:43;;;;;;;19.00;12.53;;;3.10;99.90;;;;;;5017253;28;20194;-65
2023/01/28 04:43:12;;;;;;;18.60;12.07;;;3.00;99.90;;;;;;5026450;28;20369;-65
2023/01/28 04:45:40;;;;;;;19.87;12.77;;;3.00;99.90;;;;;;5013940;28;20206;-65
2023/01/28 04:48:08;;;;;;;18.63;12.47;;;3.00;99.90;;;;;;5025166;28;20189;-65
2023/01/28 04:50:37;;;;;;;21.90;12.40;;;3.00;99.90;;;;;;5031392;28;20201;-65
2023/01/28 04:53:09;;;;;;;18.00;11.67;;;3.00;99.90;;;;;;5021363;28;20239;-65
2023/01/28 04:55:38;;;;;;;19.10;11.60;;;3.00;99.90;;;;;;5012275;28;20225;-65
2023/01/28 04:58:09;;;;;;;19.70;13.03;;;3.00;99.90;;;;;;5021011;28;20683;-65
2023/01/28 05:00:37;;;;;;;20.17;12.57;;;3.00;99.90;;;;;;5024542;28;20193;-65
2023/01/28 05:03:08;;;;;;;17.50;12.13;;;3.00;99.90;;;;;;5028226;28;20683;-65
2023/01/28 05:05:37;;;;;;;19.47;12.23;;;3.00;99.90;;;;;;5022045;28;20190;-65
2023/01/28 05:08:06;;;;;;;18.60;12.27;;;3.00;99.90;;;;;;5020386;28;20229;-65
2023/01/28 05:10:35;;;;;;;19.13;13.27;;;3.00;99.90;;;;;;5027476;28;20228;-65
2023/01/28 05:13:04;;;;;;;18.63;12.23;;;3.00;99.90;;;;;;5020677;28;20205;-65
2023/01/28 05:15:32;;;;;;;18.07;12.20;;;3.00;99.90;;;;;;5015053;28;20295;-65
2023/01/28 05:18:03;;;;;;;19.53;12.53;;;3.00;99.90;;;;;;5025817;28;20526;-65
2023/01/28 05:20:32;;;;;;;19.17;12.10;;;2.90;99.90;;;;;;5023466;28;20607;-65
2023/01/28 05:23:00;;;;;;;19.53;13.10;;;2.90;99.90;;;;;;5011037;28;20212;-65
2023/01/28 05:25:28;;;;;;;19.00;12.63;;;2.90;99.90;;;;;;5020317;28;20522;-65
2023/01/28 05:27:58;;;;;;;20.50;12.80;;;2.90;99.90;;;;;;5031105;28;20193;-65
2023/01/28 05:30:26;;;;;;;19.07;12.47;;;2.90;99.90;;;;;;5023561;28;20214;-65
2023/01/28 05:32:56;;;;;;;20.73;13.03;;;2.90;99.90;;;;;;5024904;28;20202;-65
2023/01/28 05:35:24;;;;;;;20.97;12.87;;;2.90;99.90;;;;;;5023252;28;20198;-65
2023/01/28 05:37:54;;;;;;;20.00;12.90;;;2.90;99.90;;;;;;5033083;28;20219;-65
2023/01/28 05:40:23;;;;;;;20.27;12.33;;;2.90;99.90;;;;;;5037110;28;20506;-65
2023/01/28 05:42:51;;;;;;;18.80;12.83;;;2.90;99.90;;;;;;5026182;28;20399;-65
2023/01/28 05:45:21;;;;;;;19.07;12.43;;;2.90;99.90;;;;;;5023399;28;20214;-65
2023/01/28 05:47:50;;;;;;;20.03;12.67;;;2.90;99.90;;;;;;5032669;28;20281;-65
2023/01/28 05:50:18;;;;;;;19.20;12.53;;;2.90;99.90;;;;;;5026520;28;20217;-65
2023/01/28 05:52:47;;;;;;;20.07;12.53;;;2.90;99.90;;;;;;5032196;28;20197;-65
2023/01/28 05:55:15;;;;;;;21.50;12.87;;;2.90;99.90;;;;;;5023488;28;20205;-65
2023/01/28 05:57:46;;;;;;;19.10;12.53;;;2.90;99.90;;;;;;5045462;28;20255;-65
2023/01/28 06:00:15;;;;;;;19.47;12.47;;;2.90;99.90;;;;;;5018849;28;20194;-65
2023/01/28 06:02:46;;;;;;;20.40;12.40;;;2.90;99.90;;;;;;5024764;28;20208;-65
2023/01/28 06:05:14;;;;;;;19.40;12.23;;;2.90;99.90;;;;;;5019532;28;20194;-65
2023/01/28 06:07:45;;;;;;;20.83;13.77;;;2.90;99.90;;;;;;5026171;28;20737;-65
2023/01/28 06:10:13;;;;;;;20.23;12.30;;;2.90;99.90;;;;;;5023877;28;20202;-65
2023/01/28 06:12:42;;;;;;;18.50;12.30;;;2.90;99.90;;;;;;5027831;28;20276;-65
2023/01/28 06:15:11;;;;;;;21.07;13.67;;;2.90;99.90;;;;;;5021026;28;20561;-65
2023/01/28 06:17:40;;;;;;;20.80;13.03;;;2.90;99.90;;;;;;5020603;28;20190;-65
2023/01/28 06:20:11;;;;;;;20.47;13.17;;;2.90;99.90;;;;;;5025734;28;20202;-65
2023/01/28 06:22:40;;;;;;;20.07;12.90;;;2.90;99.90;;;;;;5023208;28;20202;-65
2023/01/28 06:25:08;;;;;;;21.60;13.47;;;2.90;99.90;;;;;;5019906;28;20200;-65
2023/01/28 06:27:37;;;;;;;22.00;13.53;;;2.90;99.90;;;;;;5028633;28;20197;-65
2023/01/28 06:30:06;;;;;;;19.73;12.97;;;2.90;99.90;;;;;;5028016;28;20239;-65
2023/01/28 06:32:35;;;;;;;21.73;13.70;;;2.90;99.90;;;;;;5015743;28;20218;-65
2023/01/28 06:35:03;;;;;;;19.77;12.80;;;2.80;99.90;;;;;;5019631;28;20202;-65
2023/01/28 06:37:33;;;;;;;21.30;13.27;;;2.80;99.90;;;;;;5033184;28;20198;-65
2023/01/28 06:40:01;;;;;;;21.77;14.53;;;2.80;99.90;;;;;;5025128;28;20588;-65
2023/01/28 06:42:30;;;;;;;22.57;13.80;;;2.80;99.90;;;;;;5029202;28;20215;-65
2023/01/28 06:44:58;;;;;;;22.47;13.13;;;2.80;99.90;;;;;;5001262;28;20197;-65
2023/01/28 06:47:26;;;;;;;21.47;13.17;;;2.80;99.90;;;;;;5030379;28;20201;-65
2023/01/28 06:49:55;;;;;;;22.40;13.63;;;2.80;99.90;;;;;;5021899;28;20575;-65
2023/01/28 06:52:23;;;;;;;21.93;13.37;;;2.80;99.90;;;;;;5022091;28;20218;-65
2023/01/28 06:54:53;;;;;;;19.90;13.47;;;2.80;99.90;;;;;;5037228;28;20206;-65
2023/01/28 06:57:21;;;;;;;22.57;13.77;;;2.80;99.90;;;;;;5013755;28;20201;-65
2023/01/28 06:59:50;;;;;;;20.73;13.23;;;2.80;99.90;;;;;;5029613;28;20193;-65
2023/01/28 07:02:18;;;;;;;22.40;13.67;;;2.80;99.90;;;;;;5026127;28;20194;-65
2023/01/28 07:04:46;;;;;;;23.27;14.40;;;2.80;99.90;;;;;;5026812;28;20202;-65
2023/01/28 07:07:15;;;;;;;22.27;14.60;;;2.80;99.90;;;;;;5026588;28;20217;-65
2023/01/28 07:09:43;;;;;;;26.03;15.30;;;2.70;99.90;;;;;;5025252;28;20694;-65
2023/01/28 07:12:13;;;;;;;25.43;14.83;;;2.80;99.90;;;;;;5025846;28;20213;-65
2023/01/28 07:14:41;;;;;;;27.90;15.30;;;2.80;99.90;;;;;;5025086;28;20206;-65
2023/01/28 07:17:09;;;;;;;34.93;17.53;;;2.80;99.90;;;;;;5016297;28;20285;-65
2023/01/28 07:19:38;;;;;;;28.27;15.93;;;2.80;99.90;;;;;;5019300;28;20683;-65
2023/01/28 07:22:06;;;;;;;30.13;17.00;;;2.80;99.90;;;;;;5019382;28;20186;-65
2023/01/28 07:24:34;;;;;;;35.00;17.90;;;2.80;99.90;;;;;;5039942;28;20196;-65
2023/01/28 07:27:03;;;;;;;24.27;14.50;;;2.70;99.90;;;;;;5028169;28;20196;-65
2023/01/28 07:29:33;;;;;;;22.60;13.90;;;2.80;99.90;;;;;;5029570;28;20625;-65
2023/01/28 07:32:01;;;;;;;25.43;15.37;;;2.70;99.90;;;;;;5014724;28;20575;-65
2023/01/28 07:34:29;;;;;;;22.00;14.20;;;2.80;99.90;;;;;;5014975;28;20622;-65
2023/01/28 07:36:58;;;;;;;25.57;16.00;;;2.70;99.90;;;;;;5022976;28;20201;-65
2023/01/28 07:39:26;;;;;;;28.00;15.77;;;2.70;99.90;;;;;;5023026;28;20276;-65
2023/01/28 07:41:54;;;;;;;27.43;15.30;;;2.70;99.90;;;;;;5020907;28;20679;-65
2023/01/28 07:44:23;;;;;;;24.63;14.23;;;2.70;99.90;;;;;;5014742;28;20204;-65
2023/01/28 07:46:52;;;;;;;26.10;15.53;;;2.70;99.90;;;;;;5019510;28;20194;-65
2023/01/28 07:49:21;;;;;;;25.20;15.27;;;2.70;99.90;;;;;;5023539;28;20202;-65
2023/01/28 07:51:49;;;;;;;27.37;16.27;;;2.70;99.90;;;;;;5022810;28;20229;-65
2023/01/28 07:54:18;;;;;;;26.63;15.03;;;2.70;99.90;;;;;;5040841;28;20198;-65
2023/01/28 07:56:46;;;;;;;22.57;14.53;;;2.80;99.90;;;;;;5018912;28;20592;-65
2023/01/28 07:59:14;;;;;;;24.07;14.93;;;2.80;99.90;;;;;;5029788;28;20220;-65
2023/01/28 08:01:43;;;;;;;23.73;14.07;;;2.80;99.90;;;;;;5014465;28;20193;-65
2023/01/28 08:04:12;;;;;;;24.33;14.20;;;2.80;99.90;;;;;;5018376;28;20636;-65
2023/01/28 08:06:41;;;;;;;27.73;15.37;;;2.80;99.90;;;;;;5013985;28;20210;-65
2023/01/28 08:09:09;;;;;;;22.93;14.07;;;2.80;99.90;;;;;;5015311;28;20194;-65
2023/01/28 08:11:39;;;;;;;21.00;12.67;;;2.70;99.90;;;;;;5029412;28;20212;-65
2023/01/28 08:14:07;;;;;;;20.07;12.80;;;2.70;99.90;;;;;;5025767;28;20196;-65
2023/01/28 08:16:35;;;;;;;21.70;13.80;;;2.80;99.90;;;;;;5022847;28;20212;-65
2023/01/28 08:19:04;;;;;;;22.10;12.50;;;2.70;99.90;;;;;;5020351;28;20198;-65
2023/01/28 08:21:33;;;;;;;20.70;12.90;;;2.80;99.90;;;;;;5023155;28;20201;-65
2023/01/28 08:24:01;;;;;;;19.57;12.70;;;2.80;99.90;;;;;;5026118;28;20671;-65
2023/01/28 08:26:30;;;;;;;24.67;13.40;;;2.80;99.90;;;;;;5023624;28;20217;-65
2023/01/28 08:28:58;;;;;;;20.53;12.57;;;2.80;99.90;;;;;;5021831;28;20201;-65
2023/01/28 08:31:28;;;;;;;22.60;13.33;;;2.80;99.90;;;;;;5020735;28;20201;-65
2023/01/28 08:33:56;;;;;;;20.77;13.20;;;2.80;99.90;;;;;;5019174;28;20204;-65
2023/01/28 08:36:24;;;;;;;23.40;13.57;;;2.80;99.90;;;;;;5020512;28;20204;-65
2023/01/28 08:38:55;;;;;;;23.63;13.43;;;2.80;99.90;;;;;;5025678;28;20220;-65
2023/01/28 08:41:23;;;;;;;25.90;14.17;;;2.80;99.90;;;;;;5023493;28;20200;-65
2023/01/28 08:43:52;;;;;;;21.10;12.63;;;2.80;99.90;;;;;;5026226;28;20221;-65
2023/01/28 08:46:20;;;;;;;21.80;12.97;;;2.80;99.90;;;;;;5029659;28;20208;-65
2023/01/28 08:48:50;;;;;;;24.17;13.13;;;2.80;99.90;;;;;;5012681;28;20248;-65
2023/01/28 08:51:18;;;;;;;20.47;12.33;;;2.80;99.90;;;;;;5016304;28;20212;-65
2023/01/28 08:53:46;;;;;;;21.23;12.70;;;2.80;99.90;;;;;;5026493;28;20296;-65
2023/01/28 08:56:16;;;;;;;25.37;12.07;;;2.80;99.90;;;;;;5018889;28;20267;-65
2023/01/28 08:58:44;;;;;;;23.87;12.43;;;2.80;99.90;;;;;;5024859;28;20201;-65
2023/01/28 09:01:13;;;;;;;20.03;12.33;;;2.80;99.90;;;;;;5025404;28;20194;-65
2023/01/28 09:03:42;;;;;;;20.50;11.90;;;2.80;99.90;;;;;;5020116;28;20210;-65
2023/01/28 09:06:10;;;;;;;22.03;12.73;;;2.80;99.90;;;;;;5019520;28;20194;-65
2023/01/28 09:08:38;;;;;;;24.07;13.53;;;2.70;99.90;;;;;;5022543;28;20233;-65
2023/01/28 09:11:07;;;;;;;22.63;13.03;;;2.80;99.90;;;;;;5023916;28;20189;-65
2023/01/28 09:13:36;;;;;;;20.10;12.60;;;2.90;99.90;;;;;;5029628;28;20305;-65
2023/01/28 09:16:05;;;;;;;19.80;12.20;;;2.80;99.90;;;;;;5029820;28;20304;-65
2023/01/28 09:18:33;;;;;;;20.43;12.17;;;2.90;99.90;;;;;;5047418;28;20228;-64
2023/01/28 09:21:05;;;;;;;21.80;12.47;;;3.00;99.90;;;;;;5027152;28;20205;-65
2023/01/28 09:23:35;;;;;;;20.97;12.33;;;3.00;99.90;;;;;;5033182;28;20213;-65
2023/01/28 09:26:05;;;;;;;22.13;13.70;;;3.00;99.90;;;;;;5029946;28;20317;-65
2023/01/28 09:28:34;;;;;;;24.67;13.37;;;3.00;99.90;;;;;;5031058;28;20255;-65
2023/01/28 09:31:05;;;;;;;25.43;14.43;;;3.00;99.90;;;;;;5028469;28;20193;-65
2023/01/28 09:33:34;;;;;;;24.90;14.53;;;3.00;99.90;;;;;;5032124;28;20219;-65
2023/01/28 09:36:04;;;;;;;23.03;13.50;;;3.00;99.90;;;;;;5028472;28;20198;-65
2023/01/28 09:38:33;;;;;;;28.03;13.93;;;3.00;99.90;;;;;;5025763;28;20197;-65
2023/01/28 09:41:09;;;;;;;22.00;13.43;;;3.00;99.90;;;;;;5022934;28;20241;-65
2023/01/28 09:44:25;;;;;;;27.70;14.43;;;3.00;99.90;;;;;;5032767;28;20612;-65
2023/01/28 09:47:01;;;;;;;21.70;13.23;;;3.10;99.90;;;;;;4966910;28;20674;-65
2023/01/28 09:49:37;;;;;;;22.40;13.87;;;3.10;99.90;;;;;;4966389;28;20639;-65
2023/01/28 09:52:05;;;;;;;23.37;13.87;;;3.10;99.90;;;;;;4995791;28;20218;-65
2023/01/28 09:54:43;;;;;;;23.00;13.83;;;3.20;99.90;;;;;;5031274;28;20663;-65
2023/01/28 09:57:20;;;;;;;22.97;13.70;;;3.20;99.90;;;;;;5036036;28;20197;-65
2023/01/28 09:59:49;;;;;;;27.97;15.23;;;3.20;99.90;;;;;;5025626;28;20198;-65
2023/01/28 10:02:36;;;;;;;22.10;13.73;;;3.30;99.90;;;;;;5027225;28;20197;-65
2023/01/28 10:05:16;;;;;;;26.67;14.50;;;3.30;99.90;;;;;;5032242;28;20205;-65
2023/01/28 10:07:55;;;;;;;31.47;15.87;;;3.20;99.90;;;;;;5020524;28;22220;-65
2023/01/28 10:10:29;;;;;;;27.27;15.00;;;3.20;99.90;;;;;;5024695;28;20194;-65
2023/01/28 10:13:20;;;;;;;33.73;16.57;;;3.10;99.90;;;;;;5020947;28;20208;-65
2023/01/28 10:15:57;;;;;;;24.17;14.47;;;3.10;99.90;;;;;;5022846;28;20201;-65
2023/01/28 10:18:35;;;;;;;26.30;14.93;;;3.20;99.90;;;;;;5014563;28;20194;-65
2023/01/28 10:21:11;;;;;;;30.87;16.13;;;3.20;99.90;;;;;;5031095;28;20202;-65
2023/01/28 10:23:49;;;;;;;25.03;14.70;;;3.20;99.90;;;;;;5025370;28;20620;-65
2023/01/28 10:26:23;;;;;;;24.37;15.00;;;3.30;99.90;;;;;;5014962;28;20214;-65
2023/01/28 10:28:56;;;;;;;25.60;14.53;;;3.50;99.90;;;;;;5029704;28;20197;-65
2023/01/28 10:31:31;;;;;;;27.17;15.57;;;3.50;99.90;;;;;;5034674;28;20557;-65
2023/01/28 10:34:03;;;;;;;26.90;14.87;;;3.50;99.90;;;;;;5027898;28;20212;-65
2023/01/28 10:36:31;;;;;;;24.77;14.50;;;3.60;99.90;;;;;;5029627;28;20263;-66
2023/01/28 10:39:00;;;;;;;25.87;14.43;;;3.60;99.90;;;;;;5028862;28;20209;-65
2023/01/28 10:41:28;;;;;;;24.63;14.23;;;3.70;99.90;;;;;;5024109;28;20194;-65
2023/01/28 10:43:58;;;;;;;26.30;14.93;;;3.90;99.90;;;;;;5019151;28;20190;-65
2023/01/28 10:46:29;;;;;;;25.50;14.23;;;3.90;99.90;;;;;;5019906;28;20278;-65
2023/01/28 10:49:06;;;;;;;22.70;13.67;;;3.90;99.90;;;;;;5027602;28;20193;-65
2023/01/28 10:51:36;;;;;;;23.37;14.13;;;4.00;99.90;;;;;;5024408;28;20193;-65
2023/01/28 10:54:21;;;;;;;24.57;14.73;;;4.00;99.90;;;;;;5022857;28;20688;-65
2023/01/28 10:56:53;;;;;;;23.50;14.00;;;4.10;99.90;;;;;;5026299;28;20198;-65
2023/01/28 10:59:26;;;;;;;22.70;14.37;;;4.10;99.90;;;;;;5022163;28;20629;-65
2023/01/28 11:01:57;;;;;;;24.27;14.63;;;4.10;99.90;;;;;;5015976;28;20542;-65
2023/01/28 11:04:29;;;;;;;28.97;15.37;;;4.00;99.90;;;;;;5039510;28;20186;-65
2023/01/28 11:07:00;;;;;;;23.93;13.50;;;4.10;99.90;;;;;;5047719;28;20245;-65
2023/01/28 11:09:30;;;;;;;24.20;14.20;;;4.10;99.90;;;;;;5029279;28;20211;-65
2023/01/28 11:12:10;;;;;;;23.00;14.87;;;4.20;99.90;;;;;;5018291;28;20760;-65
2023/01/28 11:14:44;;;;;;;24.53;14.87;;;4.40;99.90;;;;;;5031250;28;20225;-65
2023/01/28 11:17:17;;;;;;;22.73;13.80;;;4.40;99.90;;;;;;5025154;28;20190;-65
2023/01/28 11:19:47;;;;;;;26.03;14.73;;;4.50;99.90;;;;;;5033955;28;20229;-65
2023/01/28 11:22:24;;;;;;;23.60;14.60;;;4.70;99.90;;;;;;5029261;28;20655;-65
2023/01/28 11:24:53;;;;;;;24.70;14.33;;;4.60;99.90;;;;;;5025575;28;20280;-65
2023/01/28 11:27:27;;;;;;;25.37;14.27;;;4.60;99.90;;;;;;5018451;28;20193;-65
2023/01/28 11:29:57;;;;;;;26.93;15.43;;;4.70;99.90;;;;;;5026208;28;20532;-65
2023/01/28 11:32:26;;;;;;;23.50;14.57;;;4.60;99.90;;;;;;5015631;28;20198;-65
2023/01/28 11:34:58;;;;;;;23.23;13.47;;;4.70;99.90;;;;;;5028976;28;20545;-65
2023/01/28 11:37:28;;;;;;;22.73;12.90;;;4.70;99.90;;;;;;5027608;28;20525;-65
2023/01/28 11:40:19;;;;;;;26.03;15.20;;;4.70;99.90;;;;;;5026651;28;20255;-65
2023/01/28 11:42:50;;;;;;;24.77;14.47;;;4.70;99.90;;;;;;5016893;28;20279;-65
2023/01/28 11:45:22;;;;;;;22.37;13.60;;;4.70;99.90;;;;;;5027206;28;20648;-65
2023/01/28 11:48:07;;;;;;;20.30;12.87;;;4.80;99.90;;;;;;5011930;28;20212;-65
2023/01/28 11:50:45;;;;;;;20.47;12.90;;;4.80;99.90;;;;;;5017311;28;20193;-65
2023/01/28 11:53:43;;;;;;;21.50;13.57;;;4.90;99.90;;;;;;5022395;28;20194;-65
2023/01/28 11:56:26;;;;;;;17.30;11.27;;;4.70;99.90;;;;;;5013136;28;20225;-66
2023/01/28 11:59:04;;;;;;;18.83;12.23;;;4.90;99.90;;;;;;5020381;28;20247;-65
2023/01/28 12:01:44;;;;;;;18.13;12.07;;;5.00;99.90;;;;;;5024642;28;20201;-65
2023/01/28 12:04:23;;;;;;;18.13;11.23;;;5.20;99.90;;;;;;5020650;28;20205;-65
2023/01/28 12:07:22;;;;;;;16.07;10.87;;;5.20;99.90;;;;;;5028740;28;20229;-65
2023/01/28 12:09:56;;;;;;;17.53;11.13;;;5.00;99.90;;;;;;5018972;28;20209;-66
2023/01/28 12:12:54;;;;;;;15.40;10.20;;;4.90;99.90;;;;;;5015187;28;20288;-65
2023/01/28 12:15:50;;;;;;;16.33;10.60;;;4.70;99.90;;;;;;5031850;28;20214;-65
2023/01/28 12:18:39;;;;;;;15.07;9.90;;;4.60;99.90;;;;;;5010238;28;20202;-65
2023/01/28 12:21:13;;;;;;;13.10;9.47;;;4.50;99.90;;;;;;5020519;28;20644;-65
2023/01/28 12:24:01;;;;;;;11.27;8.33;;;4.50;99.90;;;;;;5020039;28;20193;-65
2023/01/28 12:26:38;;;;;;;12.90;8.27;;;4.90;99.90;;;;;;5013598;28;20197;-66
2023/01/28 12:29:18;;;;;;;11.13;8.23;;;5.10;99.90;;;;;;5013571;28;20275;-65
2023/01/28 12:31:58;;;;;;;10.03;8.00;;;5.50;99.90;;;;;;5021570;28;20197;-65
2023/01/28 12:34:56;;;;;;;10.50;8.37;;;5.60;99.90;;;;;;5019243;28;20304;-66
2023/01/28 12:37:35;;;;;;;10.50;8.10;;;5.70;99.90;;;;;;5015819;28;20189;-65
2023/01/28 12:40:25;;;;;;;8.40;6.63;;;5.80;99.90;;;;;;5020866;28;20205;-66
2023/01/28 12:42:56;;;;;;;7.20;6.50;;;5.80;99.90;;;;;;5020640;28;20619;-65
2023/01/28 12:45:32;;;;;;;7.17;6.47;;;5.90;99.90;;;;;;5026866;28;20193;-65
2023/01/28 12:48:06;;;;;;;6.93;6.23;;;6.20;99.90;;;;;;5018745;28;20255;-66
2023/01/28 12:50:39;;;;;;;6.13;5.63;;;6.20;99.90;;;;;;5023154;28;20205;-66
2023/01/28 12:53:19;;;;;;;8.00;6.03;;;5.90;99.90;;;;;;5018348;28;20185;-66
2023/01/28 12:55:54;;;;;;;6.63;5.93;;;5.90;99.90;;;;;;5020499;28;20241;-65
2023/01/28 12:58:31;;;;;;;7.00;6.10;;;6.00;99.90;;;;;;5015717;28;20674;-66
2023/01/28 13:01:05;;;;;;;8.07;6.07;;;6.40;99.90;;;;;;5018965;28;20642;-66
2023/01/28 13:03:39;;;;;;;11.87;8.57;;;6.80;99.90;;;;;;5019195;28;20308;-66
2023/01/28 13:06:13;;;;;;;11.27;8.50;;;6.80;99.90;;;;;;5017117;28;20279;-65
2023/01/28 13:08:42;;;;;;;9.30;7.80;;;6.60;99.90;;;;;;5017684;28;20282;-66
2023/01/28 13:11:17;;;;;;;9.80;8.40;;;6.30;99.90;;;;;;5016855;28;20327;-66
2023/01/28 13:13:46;;;;;;;10.10;8.27;;;5.90;99.90;;;;;;5021839;28;20195;-66
2023/01/28 13:16:15;;;;;;;8.97;7.43;;;5.60;99.90;;;;;;5016759;28;20205;-66
2023/01/28 13:18:46;;;;;;;11.50;8.43;;;5.50;99.90;;;;;;5014436;28;20202;-66
2023/01/28 13:21:34;;;;;;;11.70;8.57;;;5.40;99.90;;;;;;5024127;28;20302;-66
2023/01/28 13:24:31;;;;;;;11.07;8.17;;;5.60;99.90;;;;;;5031754;28;20272;-65
2023/01/28 13:27:12;;;;;;;10.27;7.63;;;5.80;99.90;;;;;;5022568;28;20205;-65
2023/01/28 13:29:41;;;;;;;11.47;7.40;;;6.00;99.90;;;;;;5016090;28;20670;-65
2023/01/28 13:32:31;;;;;;;9.27;7.30;;;6.20;99.90;;;;;;5010741;28;20194;-65